EW5008 Weather Reports


Display with metric or nautical units.
time (UTC)temp
F
wind
direction
speed
MPH
gust
MPH
rain 1hr
in
rain 24hr
in
rain mn
in
humidity
%
barometer
mb
20210920210232 61 360 14.0 24.0 0.00 0.00 0.00 100 1027.7
20210920203232 60 360 19.0 21.0 0.00 0.00 0.00 100 1028.2
20210920200232 61 360 13.0 22.0 0.00 0.00 0.00 100 1028.7
20210920193231 60 360 15.0 21.0 0.00 0.00 0.00 100 1028.2
20210920190232 60 360 17.0 24.0 0.00 0.00 0.00 100 1028.2
20210920183232 59 360 20.0 24.0 0.00 0.00 0.00 100 1027.2
20210920180231 58 360 20.0 27.0 0.00 0.00 0.00 100 1027.0
20210920173231 58 360 20.0 31.0 0.00 0.00 0.00 100 1026.6
20210920170231 58 360 19.0 29.0 0.00 0.00 0.00 100 1026.1
20210920163231 57 360 22.0 29.0 0.00 0.00 0.00 100 1025.1
20210920160231 57 360 25.0 26.0 0.00 0.00 0.00 100 1024.6
20210920153231 57 360 21.0 25.0 0.00 0.00 0.00 100 1024.3
20210920150231 56 360 23.0 27.0 0.00 0.00 0.00 100 1024.2
20210920143231 55 360 22.0 27.0 0.00 0.00 0.00 100 1023.2
20210920140231 55 360 20.0 23.0 0.00 0.00 0.00 100 1022.6
20210920133231 54 360 17.0 21.0 0.00 0.00 0.00 100 1022.3
20210920130231 55 360 16.0 21.0 0.00 0.00 0.00 100 1022.1
20210920123230 55 360 13.0 16.0 0.00 0.00 0.00 100 1021.0
20210920120231 56 360 11.0 12.0 0.00 0.00 0.00 100 1021.5
20210920113231 57 360 9.0 11.0 0.00 0.00 0.00 100 1022.9
20210920110230 58 360 8.0 10.0 0.00 0.00 0.00 100 1023.5
20210920103231 58 360 10.0 12.0 0.00 0.00 0.00 100 1023.4
20210920100230 58 360 8.0 9.0 0.00 0.00 0.00 100 1023.3
20210920093231 58 360 8.0 10.0 0.00 0.00 0.00 100 1023.8
20210920090231 61 360 3.0 6.0 0.00 0.00 0.00 100 1024.4
20210920083230 61 360 4.0 6.0 0.00 0.00 0.00 100 1024.9
20210920080230 61 360 4.0 6.0 0.00 0.00 0.00 100 1025.1
20210920073230 60 360 3.0 10.0 0.00 0.00 0.00 100 1024.6
20210920070231 60 360 8.0 9.0 0.00 0.00 0.00 100 1024.9
20210920063230 60 360 5.0 6.0 0.00 0.00 0.00 100 1024.3
20210920060230 61 360 3.0 6.0 0.00 0.00 0.00 100 1024.3
20210920053230 60 360 5.0 6.0 0.00 0.00 0.00 100 1023.7
20210920050230 60 360 5.0 8.0 0.00 0.00 0.00 100 1023.6
20210920043230 60 360 4.0 10.0 0.00 0.00 0.00 100 1024.2
20210920040230 60 360 8.0 10.0 0.00 0.00 0.00 100 1024.2
20210920033230 59 360 2.0 9.0 0.00 0.00 0.00 100 1024.0
20210920030230 59 360 5.0 9.0 0.00 0.00 0.00 100 1023.8
20210920023230 59 360 1.0 10.0 0.00 0.00 0.00 100 1023.1
20210920020229 60 360 6.0 12.0 0.00 0.00 0.00 100 1023.5
20210920013230 57 360 5.0 16.0 0.00 0.00 0.00 100 1022.4
20210920010230 56 360 9.0 19.0 0.00 0.00 0.00 100 1021.4
20210920003229 60 360 1.0 18.0 0.00 0.00 0.00 100 1022.5
20210920000229 62 106 0.0 15.0 0.00 0.00 0.00 100 1023.4
20210919233229 62 360 12.0 14.0 0.00 0.00 0.00 100 1023.6
20210919230229 63 229 3.0 15.0 0.00 0.00 0.00 100 1024.2
20210919223229 63 360 6.0 17.0 0.00 0.00 0.00 100 1024.3
20210919220229 64 153 4.0 16.0 0.00 0.00 0.00 100 1024.9
20210919213229 64 142 0.0 14.0 0.00 0.00 0.00 100 1025.2